sensor_id;sensor_type;location;lat;lon;timestamp;P1;durP1;ratioP1;P2;durP2;ratioP2
6983;SDS011;3532;51.118;7.210;2023-07-31T00:01:31;6.20;;;4.80;;
6983;SDS011;3532;51.118;7.210;2023-07-31T00:03:57;7.70;;;4.77;;
6983;SDS011;3532;51.118;7.210;2023-07-31T00:06:22;8.77;;;5.67;;
6983;SDS011;3532;51.118;7.210;2023-07-31T00:08:47;7.13;;;5.60;;
6983;SDS011;3532;51.118;7.210;2023-07-31T00:11:13;8.13;;;5.30;;
6983;SDS011;3532;51.118;7.210;2023-07-31T00:13:38;6.43;;;4.60;;
6983;SDS011;3532;51.118;7.210;2023-07-31T00:16:03;7.83;;;5.20;;
6983;SDS011;3532;51.118;7.210;2023-07-31T00:18:28;6.00;;;5.03;;
6983;SDS011;3532;51.118;7.210;2023-07-31T00:20:54;11.87;;;5.40;;
6983;SDS011;3532;51.118;7.210;2023-07-31T00:23:19;6.50;;;5.03;;
6983;SDS011;3532;51.118;7.210;2023-07-31T00:25:44;8.03;;;5.03;;
6983;SDS011;3532;51.118;7.210;2023-07-31T00:28:11;9.57;;;5.37;;
6983;SDS011;3532;51.118;7.210;2023-07-31T00:30:36;11.03;;;5.17;;
6983;SDS011;3532;51.118;7.210;2023-07-31T00:33:02;9.80;;;5.50;;
6983;SDS011;3532;51.118;7.210;2023-07-31T00:35:28;7.77;;;4.87;;
6983;SDS011;3532;51.118;7.210;2023-07-31T00:37:53;6.73;;;4.83;;
6983;SDS011;3532;51.118;7.210;2023-07-31T00:40:18;8.80;;;5.00;;
6983;SDS011;3532;51.118;7.210;2023-07-31T00:42:44;12.07;;;5.43;;
6983;SDS011;3532;51.118;7.210;2023-07-31T00:45:09;7.40;;;5.17;;
6983;SDS011;3532;51.118;7.210;2023-07-31T00:47:34;8.87;;;5.33;;
6983;SDS011;3532;51.118;7.210;2023-07-31T00:50:00;10.13;;;5.50;;
6983;SDS011;3532;51.118;7.210;2023-07-31T00:52:25;6.07;;;4.90;;
6983;SDS011;3532;51.118;7.210;2023-07-31T00:54:50;10.30;;;5.30;;
6983;SDS011;3532;51.118;7.210;2023-07-31T00:57:16;7.77;;;4.67;;
6983;SDS011;3532;51.118;7.210;2023-07-31T00:59:41;8.57;;;5.57;;
6983;SDS011;3532;51.118;7.210;2023-07-31T01:02:06;6.57;;;4.87;;
6983;SDS011;3532;51.118;7.210;2023-07-31T01:04:32;9.33;;;4.93;;
6983;SDS011;3532;51.118;7.210;2023-07-31T01:09:53;9.90;;;4.60;;
6983;SDS011;3532;51.118;7.210;2023-07-31T01:12:42;8.30;;;5.10;;
6983;SDS011;3532;51.118;7.210;2023-07-31T01:15:10;7.43;;;4.60;;
6983;SDS011;3532;51.118;7.210;2023-07-31T01:17:36;9.73;;;4.93;;
6983;SDS011;3532;51.118;7.210;2023-07-31T01:20:02;7.33;;;4.63;;
6983;SDS011;3532;51.118;7.210;2023-07-31T01:28:42;9.13;;;4.97;;
6983;SDS011;3532;51.118;7.210;2023-07-31T01:31:20;6.73;;;4.67;;
6983;SDS011;3532;51.118;7.210;2023-07-31T01:33:48;6.20;;;4.83;;
6983;SDS011;3532;51.118;7.210;2023-07-31T01:36:15;7.43;;;4.97;;
6983;SDS011;3532;51.118;7.210;2023-07-31T01:38:40;8.70;;;4.77;;
6983;SDS011;3532;51.118;7.210;2023-07-31T01:41:06;8.67;;;4.90;;
6983;SDS011;3532;51.118;7.210;2023-07-31T01:43:31;12.53;;;5.43;;
6983;SDS011;3532;51.118;7.210;2023-07-31T01:45:56;8.80;;;4.40;;
6983;SDS011;3532;51.118;7.210;2023-07-31T01:48:22;9.03;;;4.80;;
6983;SDS011;3532;51.118;7.210;2023-07-31T01:50:47;6.27;;;4.50;;
6983;SDS011;3532;51.118;7.210;2023-07-31T01:53:12;9.23;;;4.90;;
6983;SDS011;3532;51.118;7.210;2023-07-31T01:55:38;7.60;;;5.30;;
6983;SDS011;3532;51.118;7.210;2023-07-31T01:58:03;10.93;;;5.30;;
6983;SDS011;3532;51.118;7.210;2023-07-31T02:00:29;7.70;;;4.80;;
6983;SDS011;3532;51.118;7.210;2023-07-31T02:02:54;10.83;;;5.80;;
6983;SDS011;3532;51.118;7.210;2023-07-31T02:05:19;8.27;;;4.50;;
6983;SDS011;3532;51.118;7.210;2023-07-31T02:07:45;8.13;;;4.20;;
6983;SDS011;3532;51.118;7.210;2023-07-31T02:10:10;8.40;;;4.63;;
6983;SDS011;3532;51.118;7.210;2023-07-31T02:12:35;10.20;;;4.97;;
6983;SDS011;3532;51.118;7.210;2023-07-31T02:15:01;7.60;;;4.63;;
6983;SDS011;3532;51.118;7.210;2023-07-31T02:17:26;6.60;;;4.70;;
6983;SDS011;3532;51.118;7.210;2023-07-31T02:19:51;7.67;;;4.63;;
6983;SDS011;3532;51.118;7.210;2023-07-31T02:22:16;5.33;;;4.17;;
6983;SDS011;3532;51.118;7.210;2023-07-31T02:24:42;8.87;;;4.90;;
6983;SDS011;3532;51.118;7.210;2023-07-31T02:27:07;8.20;;;4.33;;
6983;SDS011;3532;51.118;7.210;2023-07-31T02:29:32;10.30;;;4.73;;
6983;SDS011;3532;51.118;7.210;2023-07-31T02:31:58;9.73;;;4.90;;
6983;SDS011;3532;51.118;7.210;2023-07-31T02:34:23;8.70;;;4.60;;
6983;SDS011;3532;51.118;7.210;2023-07-31T02:36:48;9.90;;;5.30;;
6983;SDS011;3532;51.118;7.210;2023-07-31T02:39:13;10.40;;;5.03;;
6983;SDS011;3532;51.118;7.210;2023-07-31T02:41:39;5.93;;;4.60;;
6983;SDS011;3532;51.118;7.210;2023-07-31T02:44:04;8.07;;;4.53;;
6983;SDS011;3532;51.118;7.210;2023-07-31T02:46:29;9.00;;;4.60;;
6983;SDS011;3532;51.118;7.210;2023-07-31T02:48:55;9.40;;;4.57;;
6983;SDS011;3532;51.118;7.210;2023-07-31T02:51:20;9.63;;;5.43;;
6983;SDS011;3532;51.118;7.210;2023-07-31T02:53:46;10.77;;;5.33;;
6983;SDS011;3532;51.118;7.210;2023-07-31T02:56:12;8.10;;;4.40;;
6983;SDS011;3532;51.118;7.210;2023-07-31T02:58:38;10.80;;;5.07;;
6983;SDS011;3532;51.118;7.210;2023-07-31T03:01:03;7.47;;;4.40;;
6983;SDS011;3532;51.118;7.210;2023-07-31T03:03:29;6.10;;;4.87;;
6983;SDS011;3532;51.118;7.210;2023-07-31T03:05:54;7.20;;;5.50;;
6983;SDS011;3532;51.118;7.210;2023-07-31T03:08:19;8.20;;;4.60;;
6983;SDS011;3532;51.118;7.210;2023-07-31T03:10:45;8.47;;;4.63;;
6983;SDS011;3532;51.118;7.210;2023-07-31T03:13:10;13.30;;;5.80;;
6983;SDS011;3532;51.118;7.210;2023-07-31T03:15:35;6.57;;;5.13;;
6983;SDS011;3532;51.118;7.210;2023-07-31T03:18:01;7.80;;;4.93;;
6983;SDS011;3532;51.118;7.210;2023-07-31T03:20:26;9.43;;;5.40;;
6983;SDS011;3532;51.118;7.210;2023-07-31T03:22:51;12.10;;;5.43;;
6983;SDS011;3532;51.118;7.210;2023-07-31T03:25:17;12.43;;;5.13;;
6983;SDS011;3532;51.118;7.210;2023-07-31T03:27:42;7.37;;;4.50;;
6983;SDS011;3532;51.118;7.210;2023-07-31T03:30:07;5.77;;;4.37;;
6983;SDS011;3532;51.118;7.210;2023-07-31T03:32:33;7.37;;;4.77;;
6983;SDS011;3532;51.118;7.210;2023-07-31T03:34:58;7.93;;;5.40;;
6983;SDS011;3532;51.118;7.210;2023-07-31T03:37:23;7.73;;;4.77;;
6983;SDS011;3532;51.118;7.210;2023-07-31T03:39:49;7.67;;;5.23;;
6983;SDS011;3532;51.118;7.210;2023-07-31T03:42:14;9.37;;;4.80;;
6983;SDS011;3532;51.118;7.210;2023-07-31T03:44:39;6.43;;;4.50;;
6983;SDS011;3532;51.118;7.210;2023-07-31T03:47:05;6.17;;;4.57;;
6983;SDS011;3532;51.118;7.210;2023-07-31T03:49:30;9.57;;;5.43;;
6983;SDS011;3532;51.118;7.210;2023-07-31T03:51:56;8.93;;;5.17;;
6983;SDS011;3532;51.118;7.210;2023-07-31T03:54:21;8.67;;;4.93;;
6983;SDS011;3532;51.118;7.210;2023-07-31T03:56:46;9.57;;;5.23;;
6983;SDS011;3532;51.118;7.210;2023-07-31T03:59:11;8.83;;;4.97;;
6983;SDS011;3532;51.118;7.210;2023-07-31T04:01:37;8.67;;;5.10;;
6983;SDS011;3532;51.118;7.210;2023-07-31T04:04:02;7.40;;;5.07;;
6983;SDS011;3532;51.118;7.210;2023-07-31T04:06:27;8.27;;;4.87;;
6983;SDS011;3532;51.118;7.210;2023-07-31T04:08:53;7.53;;;5.00;;
6983;SDS011;3532;51.118;7.210;2023-07-31T04:11:18;9.33;;;5.30;;
6983;SDS011;3532;51.118;7.210;2023-07-31T04:13:43;10.43;;;5.60;;
6983;SDS011;3532;51.118;7.210;2023-07-31T04:16:09;8.03;;;4.90;;
6983;SDS011;3532;51.118;7.210;2023-07-31T04:18:34;9.63;;;5.03;;
6983;SDS011;3532;51.118;7.210;2023-07-31T04:20:59;12.50;;;5.97;;
6983;SDS011;3532;51.118;7.210;2023-07-31T04:23:26;9.03;;;5.73;;
6983;SDS011;3532;51.118;7.210;2023-07-31T04:25:51;6.47;;;5.07;;
6983;SDS011;3532;51.118;7.210;2023-07-31T04:28:16;9.97;;;5.77;;
6983;SDS011;3532;51.118;7.210;2023-07-31T04:30:42;6.57;;;5.10;;
6983;SDS011;3532;51.118;7.210;2023-07-31T04:33:07;7.80;;;5.27;;
6983;SDS011;3532;51.118;7.210;2023-07-31T04:35:32;9.53;;;4.93;;
6983;SDS011;3532;51.118;7.210;2023-07-31T04:37:58;12.17;;;5.57;;
6983;SDS011;3532;51.118;7.210;2023-07-31T04:40:24;8.27;;;5.30;;
6983;SDS011;3532;51.118;7.210;2023-07-31T04:42:49;9.83;;;5.37;;
6983;SDS011;3532;51.118;7.210;2023-07-31T04:45:15;8.67;;;5.40;;
6983;SDS011;3532;51.118;7.210;2023-07-31T04:47:40;8.63;;;5.83;;
6983;SDS011;3532;51.118;7.210;2023-07-31T04:50:05;10.10;;;5.97;;
6983;SDS011;3532;51.118;7.210;2023-07-31T04:52:31;10.20;;;5.43;;
6983;SDS011;3532;51.118;7.210;2023-07-31T04:54:56;7.87;;;6.00;;
6983;SDS011;3532;51.118;7.210;2023-07-31T04:57:22;7.27;;;5.90;;
6983;SDS011;3532;51.118;7.210;2023-07-31T04:59:47;9.37;;;5.50;;
6983;SDS011;3532;51.118;7.210;2023-07-31T05:02:12;7.43;;;5.53;;
6983;SDS011;3532;51.118;7.210;2023-07-31T05:04:38;10.63;;;6.47;;
6983;SDS011;3532;51.118;7.210;2023-07-31T05:07:04;9.13;;;5.90;;
6983;SDS011;3532;51.118;7.210;2023-07-31T05:09:29;8.60;;;5.87;;
6983;SDS011;3532;51.118;7.210;2023-07-31T05:11:54;7.73;;;5.40;;
6983;SDS011;3532;51.118;7.210;2023-07-31T05:14:20;10.53;;;5.57;;
6983;SDS011;3532;51.118;7.210;2023-07-31T05:16:45;7.10;;;5.40;;
6983;SDS011;3532;51.118;7.210;2023-07-31T05:19:10;7.20;;;5.10;;
6983;SDS011;3532;51.118;7.210;2023-07-31T05:21:36;7.60;;;5.17;;
6983;SDS011;3532;51.118;7.210;2023-07-31T05:24:01;6.43;;;5.40;;
6983;SDS011;3532;51.118;7.210;2023-07-31T05:26:26;7.30;;;5.57;;
6983;SDS011;3532;51.118;7.210;2023-07-31T05:28:52;7.97;;;5.50;;
6983;SDS011;3532;51.118;7.210;2023-07-31T05:31:17;7.63;;;5.57;;
6983;SDS011;3532;51.118;7.210;2023-07-31T05:33:42;12.13;;;6.23;;
6983;SDS011;3532;51.118;7.210;2023-07-31T05:36:08;5.80;;;5.10;;
6983;SDS011;3532;51.118;7.210;2023-07-31T05:38:34;8.33;;;5.80;;
6983;SDS011;3532;51.118;7.210;2023-07-31T05:40:59;9.67;;;6.33;;
6983;SDS011;3532;51.118;7.210;2023-07-31T05:43:24;5.60;;;4.73;;
6983;SDS011;3532;51.118;7.210;2023-07-31T05:45:50;10.73;;;6.00;;
6983;SDS011;3532;51.118;7.210;2023-07-31T05:48:16;10.33;;;6.10;;
6983;SDS011;3532;51.118;7.210;2023-07-31T05:50:41;8.77;;;5.50;;
6983;SDS011;3532;51.118;7.210;2023-07-31T05:53:08;6.93;;;5.73;;
6983;SDS011;3532;51.118;7.210;2023-07-31T05:55:33;6.23;;;5.63;;
6983;SDS011;3532;51.118;7.210;2023-07-31T05:57:59;6.73;;;5.03;;
6983;SDS011;3532;51.118;7.210;2023-07-31T06:00:24;10.37;;;5.70;;
6983;SDS011;3532;51.118;7.210;2023-07-31T06:02:49;11.23;;;6.10;;
6983;SDS011;3532;51.118;7.210;2023-07-31T06:05:15;7.20;;;5.37;;
6983;SDS011;3532;51.118;7.210;2023-07-31T06:07:40;10.63;;;5.80;;
6983;SDS011;3532;51.118;7.210;2023-07-31T06:10:05;9.27;;;5.77;;
6983;SDS011;3532;51.118;7.210;2023-07-31T06:12:32;8.03;;;5.47;;
6983;SDS011;3532;51.118;7.210;2023-07-31T06:14:57;8.90;;;5.40;;
6983;SDS011;3532;51.118;7.210;2023-07-31T06:17:23;7.53;;;5.23;;
6983;SDS011;3532;51.118;7.210;2023-07-31T06:19:48;6.90;;;5.40;;
6983;SDS011;3532;51.118;7.210;2023-07-31T06:22:14;8.97;;;5.53;;
6983;SDS011;3532;51.118;7.210;2023-07-31T06:24:39;9.00;;;5.17;;
6983;SDS011;3532;51.118;7.210;2023-07-31T06:27:05;9.17;;;5.80;;
6983;SDS011;3532;51.118;7.210;2023-07-31T06:29:31;8.80;;;6.13;;
6983;SDS011;3532;51.118;7.210;2023-07-31T06:31:56;7.97;;;5.90;;
6983;SDS011;3532;51.118;7.210;2023-07-31T06:34:21;7.00;;;5.77;;
6983;SDS011;3532;51.118;7.210;2023-07-31T06:36:47;7.27;;;5.10;;
6983;SDS011;3532;51.118;7.210;2023-07-31T06:39:12;11.53;;;6.40;;
6983;SDS011;3532;51.118;7.210;2023-07-31T06:41:38;13.17;;;5.90;;
6983;SDS011;3532;51.118;7.210;2023-07-31T06:44:03;7.67;;;6.10;;
6983;SDS011;3532;51.118;7.210;2023-07-31T06:46:29;5.53;;;4.60;;
6983;SDS011;3532;51.118;7.210;2023-07-31T06:48:54;6.47;;;5.30;;
6983;SDS011;3532;51.118;7.210;2023-07-31T06:51:20;7.37;;;5.43;;
6983;SDS011;3532;51.118;7.210;2023-07-31T06:53:45;8.60;;;6.07;;
6983;SDS011;3532;51.118;7.210;2023-07-31T06:56:10;7.67;;;5.60;;
6983;SDS011;3532;51.118;7.210;2023-07-31T06:58:36;5.83;;;5.17;;
6983;SDS011;3532;51.118;7.210;2023-07-31T07:01:01;6.23;;;5.03;;
6983;SDS011;3532;51.118;7.210;2023-07-31T07:03:26;7.67;;;5.10;;
6983;SDS011;3532;51.118;7.210;2023-07-31T07:05:52;6.90;;;5.93;;
6983;SDS011;3532;51.118;7.210;2023-07-31T07:08:17;7.80;;;5.50;;
6983;SDS011;3532;51.118;7.210;2023-07-31T07:10:43;7.20;;;5.23;;
6983;SDS011;3532;51.118;7.210;2023-07-31T07:13:08;7.90;;;4.77;;
6983;SDS011;3532;51.118;7.210;2023-07-31T07:15:33;6.17;;;5.40;;
6983;SDS011;3532;51.118;7.210;2023-07-31T07:17:59;9.83;;;5.33;;
6983;SDS011;3532;51.118;7.210;2023-07-31T07:20:24;8.80;;;5.07;;
6983;SDS011;3532;51.118;7.210;2023-07-31T07:22:49;6.73;;;5.23;;
6983;SDS011;3532;51.118;7.210;2023-07-31T07:25:15;8.70;;;6.10;;
6983;SDS011;3532;51.118;7.210;2023-07-31T07:27:40;7.07;;;5.17;;
6983;SDS011;3532;51.118;7.210;2023-07-31T07:30:06;8.03;;;6.17;;
6983;SDS011;3532;51.118;7.210;2023-07-31T07:32:31;7.73;;;5.73;;
6983;SDS011;3532;51.118;7.210;2023-07-31T07:34:57;8.83;;;6.00;;
6983;SDS011;3532;51.118;7.210;2023-07-31T07:37:22;6.80;;;5.30;;
6983;SDS011;3532;51.118;7.210;2023-07-31T07:39:47;5.80;;;5.17;;
6983;SDS011;3532;51.118;7.210;2023-07-31T07:42:13;6.53;;;5.17;;
6983;SDS011;3532;51.118;7.210;2023-07-31T07:44:38;10.53;;;5.63;;
6983;SDS011;3532;51.118;7.210;2023-07-31T07:47:04;9.67;;;5.60;;
6983;SDS011;3532;51.118;7.210;2023-07-31T07:49:31;7.17;;;5.47;;
6983;SDS011;3532;51.118;7.210;2023-07-31T07:51:56;9.43;;;5.70;;
6983;SDS011;3532;51.118;7.210;2023-07-31T07:54:21;7.20;;;5.33;;
6983;SDS011;3532;51.118;7.210;2023-07-31T07:56:47;9.30;;;5.47;;
6983;SDS011;3532;51.118;7.210;2023-07-31T07:59:12;6.70;;;5.30;;
6983;SDS011;3532;51.118;7.210;2023-07-31T08:01:38;6.47;;;5.37;;
6983;SDS011;3532;51.118;7.210;2023-07-31T08:04:03;6.33;;;5.43;;
6983;SDS011;3532;51.118;7.210;2023-07-31T08:06:28;7.67;;;5.17;;
6983;SDS011;3532;51.118;7.210;2023-07-31T08:08:54;6.03;;;5.17;;
6983;SDS011;3532;51.118;7.210;2023-07-31T08:11:20;7.53;;;5.87;;
6983;SDS011;3532;51.118;7.210;2023-07-31T08:13:46;6.63;;;5.30;;
6983;SDS011;3532;51.118;7.210;2023-07-31T08:16:12;6.83;;;5.50;;
6983;SDS011;3532;51.118;7.210;2023-07-31T08:18:37;5.87;;;4.80;;
6983;SDS011;3532;51.118;7.210;2023-07-31T08:21:02;7.47;;;5.10;;
6983;SDS011;3532;51.118;7.210;2023-07-31T08:23:28;6.13;;;4.63;;
6983;SDS011;3532;51.118;7.210;2023-07-31T08:25:53;5.80;;;5.20;;
6983;SDS011;3532;51.118;7.210;2023-07-31T08:28:18;6.53;;;4.73;;
6983;SDS011;3532;51.118;7.210;2023-07-31T08:30:44;7.50;;;4.83;;
6983;SDS011;3532;51.118;7.210;2023-07-31T08:33:10;5.63;;;4.57;;
6983;SDS011;3532;51.118;7.210;2023-07-31T08:35:36;5.97;;;4.37;;
6983;SDS011;3532;51.118;7.210;2023-07-31T08:38:01;5.53;;;4.10;;
6983;SDS011;3532;51.118;7.210;2023-07-31T08:40:26;5.20;;;3.80;;
6983;SDS011;3532;51.118;7.210;2023-07-31T08:42:53;4.97;;;3.57;;
6983;SDS011;3532;51.118;7.210;2023-07-31T08:45:21;5.00;;;4.00;;
6983;SDS011;3532;51.118;7.210;2023-07-31T08:47:47;6.83;;;4.40;;
6983;SDS011;3532;51.118;7.210;2023-07-31T08:50:14;7.43;;;4.30;;
6983;SDS011;3532;51.118;7.210;2023-07-31T08:52:40;7.03;;;4.07;;
6983;SDS011;3532;51.118;7.210;2023-07-31T08:55:06;4.77;;;4.27;;
6983;SDS011;3532;51.118;7.210;2023-07-31T08:57:32;5.83;;;4.23;;
6983;SDS011;3532;51.118;7.210;2023-07-31T09:00:00;7.63;;;5.13;;
6983;SDS011;3532;51.118;7.210;2023-07-31T09:02:26;7.33;;;4.37;;
6983;SDS011;3532;51.118;7.210;2023-07-31T09:04:55;7.40;;;4.80;;
6983;SDS011;3532;51.118;7.210;2023-07-31T09:07:20;7.43;;;5.07;;
6983;SDS011;3532;51.118;7.210;2023-07-31T09:09:46;4.80;;;4.30;;
6983;SDS011;3532;51.118;7.210;2023-07-31T09:12:11;5.90;;;3.93;;
6983;SDS011;3532;51.118;7.210;2023-07-31T09:14:37;4.63;;;4.13;;
6983;SDS011;3532;51.118;7.210;2023-07-31T09:17:03;4.50;;;4.10;;
6983;SDS011;3532;51.118;7.210;2023-07-31T09:19:35;6.30;;;3.70;;
6983;SDS011;3532;51.118;7.210;2023-07-31T09:22:03;5.53;;;4.13;;
6983;SDS011;3532;51.118;7.210;2023-07-31T09:24:29;6.50;;;4.30;;
6983;SDS011;3532;51.118;7.210;2023-07-31T09:26:56;5.53;;;4.53;;
6983;SDS011;3532;51.118;7.210;2023-07-31T09:29:23;6.87;;;4.80;;
6983;SDS011;3532;51.118;7.210;2023-07-31T09:31:50;7.30;;;4.40;;
6983;SDS011;3532;51.118;7.210;2023-07-31T09:34:15;5.70;;;4.43;;
6983;SDS011;3532;51.118;7.210;2023-07-31T09:36:41;5.20;;;4.20;;
6983;SDS011;3532;51.118;7.210;2023-07-31T09:39:11;5.90;;;4.60;;
6983;SDS011;3532;51.118;7.210;2023-07-31T09:41:37;6.50;;;4.70;;
6983;SDS011;3532;51.118;7.210;2023-07-31T09:44:04;10.03;;;5.13;;
6983;SDS011;3532;51.118;7.210;2023-07-31T09:46:29;4.87;;;4.37;;
6983;SDS011;3532;51.118;7.210;2023-07-31T09:49:03;5.47;;;4.07;;
6983;SDS011;3532;51.118;7.210;2023-07-31T09:51:39;5.93;;;4.67;;
6983;SDS011;3532;51.118;7.210;2023-07-31T09:54:09;6.93;;;5.50;;
6983;SDS011;3532;51.118;7.210;2023-07-31T09:56:38;6.43;;;4.90;;
6983;SDS011;3532;51.118;7.210;2023-07-31T09:59:07;6.60;;;4.47;;
6983;SDS011;3532;51.118;7.210;2023-07-31T10:01:33;5.60;;;4.53;;
6983;SDS011;3532;51.118;7.210;2023-07-31T10:03:58;6.30;;;4.40;;
6983;SDS011;3532;51.118;7.210;2023-07-31T10:06:24;6.93;;;4.20;;
6983;SDS011;3532;51.118;7.210;2023-07-31T10:08:50;6.27;;;4.83;;
6983;SDS011;3532;51.118;7.210;2023-07-31T10:11:16;6.27;;;4.20;;
6983;SDS011;3532;51.118;7.210;2023-07-31T10:13:42;6.13;;;4.50;;
6983;SDS011;3532;51.118;7.210;2023-07-31T10:16:07;5.03;;;4.40;;
6983;SDS011;3532;51.118;7.210;2023-07-31T10:18:33;10.83;;;4.70;;
6983;SDS011;3532;51.118;7.210;2023-07-31T10:21:00;7.43;;;4.67;;
6983;SDS011;3532;51.118;7.210;2023-07-31T10:23:26;5.60;;;4.50;;
6983;SDS011;3532;51.118;7.210;2023-07-31T10:25:53;4.50;;;3.87;;
6983;SDS011;3532;51.118;7.210;2023-07-31T10:28:19;6.33;;;4.47;;
6983;SDS011;3532;51.118;7.210;2023-07-31T10:30:45;7.37;;;4.93;;
6983;SDS011;3532;51.118;7.210;2023-07-31T10:33:11;6.90;;;4.47;;
6983;SDS011;3532;51.118;7.210;2023-07-31T10:35:36;5.27;;;4.50;;
6983;SDS011;3532;51.118;7.210;2023-07-31T10:38:11;7.30;;;4.87;;
6983;SDS011;3532;51.118;7.210;2023-07-31T10:40:37;6.27;;;5.00;;
6983;SDS011;3532;51.118;7.210;2023-07-31T10:43:03;9.30;;;5.20;;
6983;SDS011;3532;51.118;7.210;2023-07-31T10:45:32;7.27;;;4.73;;
6983;SDS011;3532;51.118;7.210;2023-07-31T10:47:58;5.80;;;4.77;;
6983;SDS011;3532;51.118;7.210;2023-07-31T10:50:25;6.83;;;4.47;;
6983;SDS011;3532;51.118;7.210;2023-07-31T10:52:51;5.33;;;4.60;;
6983;SDS011;3532;51.118;7.210;2023-07-31T10:55:25;7.30;;;5.10;;
6983;SDS011;3532;51.118;7.210;2023-07-31T10:57:53;6.40;;;5.10;;
6983;SDS011;3532;51.118;7.210;2023-07-31T11:00:24;5.53;;;4.97;;
6983;SDS011;3532;51.118;7.210;2023-07-31T11:03:00;6.53;;;4.37;;
6983;SDS011;3532;51.118;7.210;2023-07-31T11:05:46;5.73;;;4.20;;
6983;SDS011;3532;51.118;7.210;2023-07-31T11:08:23;6.93;;;4.77;;
6983;SDS011;3532;51.118;7.210;2023-07-31T11:10:50;5.47;;;4.13;;
6983;SDS011;3532;51.118;7.210;2023-07-31T11:15:54;4.57;;;4.17;;
6983;SDS011;3532;51.118;7.210;2023-07-31T11:18:19;5.47;;;4.60;;
6983;SDS011;3532;51.118;7.210;2023-07-31T11:20:45;9.63;;;4.70;;
6983;SDS011;3532;51.118;7.210;2023-07-31T11:23:10;8.10;;;5.00;;
6983;SDS011;3532;51.118;7.210;2023-07-31T11:25:36;5.17;;;4.07;;
6983;SDS011;3532;51.118;7.210;2023-07-31T11:28:07;6.53;;;4.23;;
6983;SDS011;3532;51.118;7.210;2023-07-31T11:30:34;4.67;;;4.17;;
6983;SDS011;3532;51.118;7.210;2023-07-31T11:33:01;7.43;;;4.60;;
6983;SDS011;3532;51.118;7.210;2023-07-31T11:35:28;5.33;;;4.47;;
6983;SDS011;3532;51.118;7.210;2023-07-31T11:37:54;5.87;;;4.20;;
6983;SDS011;3532;51.118;7.210;2023-07-31T11:40:20;5.03;;;4.07;;
6983;SDS011;3532;51.118;7.210;2023-07-31T11:42:45;6.63;;;5.13;;
6983;SDS011;3532;51.118;7.210;2023-07-31T11:45:10;5.13;;;4.60;;
6983;SDS011;3532;51.118;7.210;2023-07-31T11:47:36;5.47;;;4.93;;
6983;SDS011;3532;51.118;7.210;2023-07-31T11:50:03;7.40;;;4.77;;
6983;SDS011;3532;51.118;7.210;2023-07-31T11:52:30;5.30;;;4.53;;
6983;SDS011;3532;51.118;7.210;2023-07-31T11:54:57;7.73;;;4.70;;
6983;SDS011;3532;51.118;7.210;2023-07-31T11:57:23;4.60;;;3.97;;
6983;SDS011;3532;51.118;7.210;2023-07-31T11:59:49;5.00;;;4.50;;
6983;SDS011;3532;51.118;7.210;2023-07-31T12:02:14;5.67;;;4.67;;
6983;SDS011;3532;51.118;7.210;2023-07-31T12:04:41;5.10;;;4.27;;
6983;SDS011;3532;51.118;7.210;2023-07-31T12:07:07;6.40;;;4.30;;
6983;SDS011;3532;51.118;7.210;2023-07-31T12:09:32;5.13;;;3.90;;
6983;SDS011;3532;51.118;7.210;2023-07-31T12:11:57;3.90;;;3.33;;
6983;SDS011;3532;51.118;7.210;2023-07-31T12:14:29;4.83;;;3.60;;
6983;SDS011;3532;51.118;7.210;2023-07-31T12:16:55;4.63;;;3.57;;
6983;SDS011;3532;51.118;7.210;2023-07-31T12:19:22;4.20;;;3.60;;
6983;SDS011;3532;51.118;7.210;2023-07-31T12:21:49;5.40;;;3.70;;
6983;SDS011;3532;51.118;7.210;2023-07-31T12:24:14;4.17;;;3.77;;
6983;SDS011;3532;51.118;7.210;2023-07-31T12:26:40;3.80;;;3.40;;
6983;SDS011;3532;51.118;7.210;2023-07-31T12:29:06;3.97;;;2.90;;
6983;SDS011;3532;51.118;7.210;2023-07-31T12:31:33;4.60;;;3.07;;
6983;SDS011;3532;51.118;7.210;2023-07-31T12:33:58;4.13;;;3.50;;
6983;SDS011;3532;51.118;7.210;2023-07-31T12:36:24;3.33;;;3.03;;
6983;SDS011;3532;51.118;7.210;2023-07-31T12:38:50;5.77;;;3.47;;
6983;SDS011;3532;51.118;7.210;2023-07-31T12:41:16;3.10;;;2.90;;
6983;SDS011;3532;51.118;7.210;2023-07-31T12:43:42;4.37;;;2.90;;
6983;SDS011;3532;51.118;7.210;2023-07-31T12:46:09;3.37;;;3.07;;
6983;SDS011;3532;51.118;7.210;2023-07-31T12:48:34;6.20;;;2.90;;
6983;SDS011;3532;51.118;7.210;2023-07-31T12:51:00;3.13;;;2.83;;
6983;SDS011;3532;51.118;7.210;2023-07-31T12:53:25;3.10;;;2.60;;
6983;SDS011;3532;51.118;7.210;2023-07-31T12:55:51;2.80;;;2.60;;
6983;SDS011;3532;51.118;7.210;2023-07-31T12:58:16;3.83;;;2.50;;
6983;SDS011;3532;51.118;7.210;2023-07-31T13:00:41;3.73;;;2.47;;
6983;SDS011;3532;51.118;7.210;2023-07-31T13:03:07;3.03;;;2.73;;
6983;SDS011;3532;51.118;7.210;2023-07-31T13:05:32;3.07;;;2.87;;
6983;SDS011;3532;51.118;7.210;2023-07-31T13:07:58;3.10;;;2.80;;
6983;SDS011;3532;51.118;7.210;2023-07-31T13:10:23;4.20;;;3.20;;
6983;SDS011;3532;51.118;7.210;2023-07-31T13:12:49;4.40;;;3.23;;
6983;SDS011;3532;51.118;7.210;2023-07-31T13:15:14;4.70;;;3.30;;
6983;SDS011;3532;51.118;7.210;2023-07-31T13:17:40;3.80;;;3.40;;
6983;SDS011;3532;51.118;7.210;2023-07-31T13:20:06;3.90;;;3.60;;
6983;SDS011;3532;51.118;7.210;2023-07-31T13:22:31;5.00;;;3.70;;
6983;SDS011;3532;51.118;7.210;2023-07-31T13:24:57;6.47;;;3.53;;
6983;SDS011;3532;51.118;7.210;2023-07-31T13:27:22;4.47;;;3.53;;
6983;SDS011;3532;51.118;7.210;2023-07-31T13:29:49;3.87;;;3.47;;
6983;SDS011;3532;51.118;7.210;2023-07-31T13:32:15;3.70;;;3.40;;
6983;SDS011;3532;51.118;7.210;2023-07-31T13:34:41;4.63;;;3.77;;
6983;SDS011;3532;51.118;7.210;2023-07-31T13:37:07;3.90;;;3.57;;
6983;SDS011;3532;51.118;7.210;2023-07-31T13:39:32;5.57;;;3.50;;
6983;SDS011;3532;51.118;7.210;2023-07-31T13:42:01;4.67;;;3.40;;
6983;SDS011;3532;51.118;7.210;2023-07-31T13:44:28;3.30;;;3.00;;
6983;SDS011;3532;51.118;7.210;2023-07-31T13:46:53;4.23;;;3.40;;
6983;SDS011;3532;51.118;7.210;2023-07-31T13:49:18;6.33;;;3.17;;
6983;SDS011;3532;51.118;7.210;2023-07-31T13:51:44;3.53;;;3.23;;
6983;SDS011;3532;51.118;7.210;2023-07-31T13:54:09;3.90;;;3.50;;
6983;SDS011;3532;51.118;7.210;2023-07-31T13:56:36;5.37;;;3.20;;
6983;SDS011;3532;51.118;7.210;2023-07-31T13:59:01;3.93;;;3.40;;
6983;SDS011;3532;51.118;7.210;2023-07-31T14:01:27;4.57;;;3.40;;
6983;SDS011;3532;51.118;7.210;2023-07-31T14:03:52;5.43;;;3.43;;
6983;SDS011;3532;51.118;7.210;2023-07-31T14:06:18;5.23;;;3.50;;
6983;SDS011;3532;51.118;7.210;2023-07-31T14:08:43;5.63;;;3.57;;
6983;SDS011;3532;51.118;7.210;2023-07-31T14:11:08;3.63;;;3.33;;
6983;SDS011;3532;51.118;7.210;2023-07-31T14:13:34;4.43;;;3.27;;
6983;SDS011;3532;51.118;7.210;2023-07-31T14:15:59;6.43;;;3.80;;
6983;SDS011;3532;51.118;7.210;2023-07-31T14:18:24;4.13;;;3.30;;
6983;SDS011;3532;51.118;7.210;2023-07-31T14:20:49;3.53;;;3.20;;
6983;SDS011;3532;51.118;7.210;2023-07-31T14:23:15;8.17;;;3.70;;
6983;SDS011;3532;51.118;7.210;2023-07-31T14:25:40;5.10;;;3.80;;
6983;SDS011;3532;51.118;7.210;2023-07-31T14:28:06;5.27;;;3.50;;
6983;SDS011;3532;51.118;7.210;2023-07-31T14:30:31;3.67;;;3.37;;
6983;SDS011;3532;51.118;7.210;2023-07-31T14:32:56;3.60;;;3.30;;
6983;SDS011;3532;51.118;7.210;2023-07-31T14:35:22;3.47;;;3.10;;
6983;SDS011;3532;51.118;7.210;2023-07-31T14:37:47;3.60;;;3.30;;
6983;SDS011;3532;51.118;7.210;2023-07-31T14:40:13;5.83;;;3.47;;
6983;SDS011;3532;51.118;7.210;2023-07-31T14:42:38;4.00;;;3.60;;
6983;SDS011;3532;51.118;7.210;2023-07-31T14:45:04;4.43;;;3.37;;
6983;SDS011;3532;51.118;7.210;2023-07-31T14:47:30;3.87;;;3.30;;
6983;SDS011;3532;51.118;7.210;2023-07-31T14:49:57;4.67;;;3.67;;
6983;SDS011;3532;51.118;7.210;2023-07-31T14:52:22;3.37;;;3.07;;
6983;SDS011;3532;51.118;7.210;2023-07-31T14:54:47;3.80;;;3.33;;
6983;SDS011;3532;51.118;7.210;2023-07-31T14:57:13;3.47;;;3.17;;
6983;SDS011;3532;51.118;7.210;2023-07-31T14:59:38;4.80;;;3.17;;
6983;SDS011;3532;51.118;7.210;2023-07-31T15:02:03;4.57;;;3.60;;
6983;SDS011;3532;51.118;7.210;2023-07-31T15:04:29;4.17;;;3.70;;
6983;SDS011;3532;51.118;7.210;2023-07-31T15:06:54;3.53;;;3.23;;
6983;SDS011;3532;51.118;7.210;2023-07-31T15:09:20;4.03;;;3.40;;
6983;SDS011;3532;51.118;7.210;2023-07-31T15:11:45;4.17;;;3.77;;
6983;SDS011;3532;51.118;7.210;2023-07-31T15:14:10;3.53;;;3.23;;
6983;SDS011;3532;51.118;7.210;2023-07-31T15:16:36;3.93;;;3.10;;
6983;SDS011;3532;51.118;7.210;2023-07-31T15:19:01;3.23;;;3.03;;